createdAt,value
2023-01-21T00:01:20.040Z,15.10
2023-01-21T00:03:47.568Z,20.03
2023-01-21T00:06:15.537Z,16.50
2023-01-21T00:08:43.436Z,16.23
2023-01-21T00:11:12.699Z,13.00
2023-01-21T00:13:40.384Z,17.17
2023-01-21T00:16:08.416Z,18.93
2023-01-21T00:18:36.073Z,17.07
2023-01-21T00:21:03.705Z,13.20
2023-01-21T00:23:31.171Z,17.13
2023-01-21T00:26:02.687Z,16.50
2023-01-21T00:28:30.789Z,16.77
2023-01-21T00:30:59.072Z,22.27
2023-01-21T00:33:26.984Z,13.27
2023-01-21T00:36:07.911Z,15.97
2023-01-21T00:38:35.723Z,21.47
2023-01-21T00:41:07.316Z,15.97
2023-01-21T00:43:35.098Z,17.57
2023-01-21T00:46:02.675Z,13.20
2023-01-21T00:48:30.217Z,13.50
2023-01-21T00:50:58.058Z,17.37
2023-01-21T00:53:25.798Z,15.47
2023-01-21T00:55:55.377Z,18.87
2023-01-21T00:58:27.316Z,16.47
2023-01-21T01:01:03.460Z,18.83
2023-01-21T01:03:31.459Z,14.50
2023-01-21T01:06:06.336Z,18.00
2023-01-21T01:08:34.179Z,17.30
2023-01-21T01:11:03.011Z,20.10
2023-01-21T01:13:30.890Z,18.50
2023-01-21T01:15:58.484Z,22.57
2023-01-21T01:18:26.660Z,13.60
2023-01-21T01:20:54.171Z,19.80
2023-01-21T01:23:21.783Z,14.20
2023-01-21T01:25:56.025Z,21.60
2023-01-21T01:28:25.542Z,18.93
2023-01-21T01:30:53.133Z,14.37
2023-01-21T01:33:20.811Z,14.60
2023-01-21T01:35:48.946Z,13.53
2023-01-21T01:38:17.516Z,20.70
2023-01-21T01:40:44.993Z,13.67
2023-01-21T01:43:18.540Z,16.50
2023-01-21T01:45:47.955Z,12.43
2023-01-21T01:48:33.650Z,12.03
2023-01-21T01:51:04.204Z,11.73
2023-01-21T01:53:32.671Z,15.13
2023-01-21T01:56:00.570Z,21.63
2023-01-21T01:58:29.776Z,19.27
2023-01-21T02:00:57.664Z,22.20
2023-01-21T02:03:25.862Z,15.90
2023-01-21T02:05:53.866Z,21.27
2023-01-21T02:08:21.647Z,19.43
2023-01-21T02:10:49.139Z,15.27
2023-01-21T02:13:17.281Z,13.20
2023-01-21T02:15:56.767Z,14.07
2023-01-21T02:18:27.046Z,12.43
2023-01-21T02:21:14.803Z,19.30
2023-01-21T02:24:18.035Z,17.90
2023-01-21T02:27:07.974Z,15.43
2023-01-21T02:29:35.589Z,14.67
2023-01-21T02:32:09.263Z,14.90
2023-01-21T02:34:43.123Z,21.63
2023-01-21T02:37:17.048Z,17.10
2023-01-21T02:39:44.553Z,13.77
2023-01-21T02:42:38.404Z,21.20
2023-01-21T02:45:14.377Z,17.47
2023-01-21T02:47:50.381Z,11.87
2023-01-21T02:50:27.114Z,16.70
2023-01-21T02:52:58.769Z,16.17
2023-01-21T02:55:29.797Z,16.00
2023-01-21T02:58:00.791Z,21.60
2023-01-21T03:00:48.677Z,17.60
2023-01-21T03:03:22.504Z,14.50
2023-01-21T03:06:01.649Z,14.43
2023-01-21T03:08:33.046Z,10.67
2023-01-21T03:11:13.775Z,22.07
2023-01-21T03:13:50.080Z,15.30
2023-01-21T03:16:20.642Z,14.87
2023-01-21T03:18:50.518Z,15.80
2023-01-21T03:21:20.167Z,14.13
2023-01-21T03:23:49.405Z,13.63
2023-01-21T03:26:19.286Z,17.23
2023-01-21T03:28:49.258Z,16.13
2023-01-21T03:31:19.261Z,13.90
2023-01-21T03:33:48.717Z,14.63
2023-01-21T03:36:21.582Z,17.23
2023-01-21T03:38:50.573Z,14.57
2023-01-21T03:41:20.193Z,13.13
2023-01-21T03:43:47.864Z,12.47
2023-01-21T03:46:15.354Z,15.37
2023-01-21T03:48:55.469Z,13.00
2023-01-21T03:51:26.314Z,15.57
2023-01-21T03:53:57.643Z,16.10
2023-01-21T03:56:28.007Z,15.07
2023-01-21T03:58:55.651Z,16.03
2023-01-21T04:01:23.469Z,22.17
2023-01-21T04:03:50.970Z,16.17
2023-01-21T04:06:19.868Z,17.77
2023-01-21T04:08:47.755Z,15.53
2023-01-21T04:11:15.632Z,12.50
2023-01-21T04:13:43.429Z,18.40
2023-01-21T04:16:10.946Z,19.57
2023-01-21T04:18:38.467Z,16.07
2023-01-21T04:21:05.927Z,19.13
2023-01-21T04:23:33.395Z,19.63
2023-01-21T04:26:00.980Z,15.70
2023-01-21T04:28:28.522Z,18.33
2023-01-21T04:30:56.025Z,15.23
2023-01-21T04:33:23.547Z,16.03
2023-01-21T04:35:51.071Z,15.77
2023-01-21T04:38:18.643Z,16.37
2023-01-21T04:40:46.123Z,16.80
2023-01-21T04:43:13.650Z,16.77
2023-01-21T04:45:41.168Z,19.43
2023-01-21T04:48:08.694Z,16.63
2023-01-21T04:50:36.147Z,19.23
2023-01-21T04:53:03.714Z,22.87
2023-01-21T04:55:31.206Z,24.00
2023-01-21T04:57:58.770Z,25.03
2023-01-21T05:00:26.381Z,14.73
2023-01-21T05:02:53.941Z,15.23
2023-01-21T05:05:21.409Z,17.80
2023-01-21T05:07:48.949Z,24.07
2023-01-21T05:10:19.743Z,14.70
2023-01-21T05:12:47.310Z,11.07
2023-01-21T05:15:14.778Z,18.97
2023-01-21T05:17:42.334Z,18.60
2023-01-21T05:20:10.179Z,18.77
2023-01-21T05:22:37.743Z,14.30
2023-01-21T05:25:05.648Z,18.40
2023-01-21T05:27:33.248Z,18.93
2023-01-21T05:30:00.733Z,17.87
2023-01-21T05:32:28.347Z,16.37
2023-01-21T05:34:55.827Z,15.53
2023-01-21T05:37:23.372Z,18.83
2023-01-21T05:39:50.877Z,18.23
2023-01-21T05:42:18.396Z,17.53
2023-01-21T05:44:45.884Z,13.67
2023-01-21T05:47:13.506Z,21.23
2023-01-21T05:49:41.011Z,18.40
2023-01-21T05:52:08.822Z,16.90
2023-01-21T05:54:36.319Z,15.20
2023-01-21T05:57:03.898Z,17.93
2023-01-21T05:59:31.370Z,15.40
2023-01-21T06:01:58.878Z,16.80
2023-01-21T06:04:26.386Z,16.93
2023-01-21T06:06:53.964Z,21.73
2023-01-21T06:09:21.433Z,20.97
2023-01-21T06:11:48.949Z,22.93
2023-01-21T06:14:16.422Z,17.87
2023-01-21T06:16:43.914Z,17.87
2023-01-21T06:19:11.416Z,15.70
2023-01-21T06:21:38.926Z,24.40
2023-01-21T06:24:06.672Z,20.63
2023-01-21T06:26:34.136Z,20.70
2023-01-21T06:29:01.653Z,20.67
2023-01-21T06:31:29.326Z,15.27
2023-01-21T06:33:56.857Z,26.23
2023-01-21T06:36:24.328Z,24.33
2023-01-21T06:38:51.884Z,22.70
2023-01-21T06:41:19.332Z,24.87
2023-01-21T06:43:46.835Z,15.30
2023-01-21T06:46:14.367Z,23.40
2023-01-21T06:48:41.978Z,16.97
2023-01-21T06:51:09.512Z,23.13
2023-01-21T06:53:37.183Z,19.33
2023-01-21T06:56:04.771Z,17.53
2023-01-21T06:58:32.322Z,20.63
2023-01-21T07:00:59.841Z,23.47
2023-01-21T07:03:27.341Z,17.37
2023-01-21T07:05:54.796Z,24.70
2023-01-21T07:08:22.417Z,24.70
2023-01-21T07:10:49.902Z,16.13
2023-01-21T07:13:17.468Z,21.87
2023-01-21T07:15:44.946Z,23.43
2023-01-21T07:18:12.542Z,22.87
2023-01-21T07:20:40.902Z,18.10
2023-01-21T07:23:08.666Z,20.47
2023-01-21T07:25:36.210Z,12.57
2023-01-21T07:28:03.918Z,21.50
2023-01-21T07:30:31.601Z,20.97
2023-01-21T07:32:59.136Z,21.00
2023-01-21T07:35:26.637Z,20.20
2023-01-21T07:37:54.165Z,23.60
2023-01-21T07:40:21.614Z,24.87
2023-01-21T07:42:55.731Z,23.90
2023-01-21T07:45:23.771Z,18.27
2023-01-21T07:47:51.270Z,17.83
2023-01-21T07:50:18.825Z,24.60
2023-01-21T07:52:46.423Z,26.07
2023-01-21T07:55:14.003Z,22.30
2023-01-21T07:57:41.488Z,22.43
2023-01-21T08:00:09.265Z,23.30
2023-01-21T08:02:36.796Z,26.20
2023-01-21T08:05:04.447Z,24.03
2023-01-21T08:07:31.922Z,23.23
2023-01-21T08:09:59.615Z,16.90
2023-01-21T08:12:27.386Z,21.90
2023-01-21T08:14:55.039Z,13.33
2023-01-21T08:17:22.488Z,23.63
2023-01-21T08:19:50.048Z,23.30
2023-01-21T08:22:17.518Z,15.07
2023-01-21T08:24:45.024Z,25.87
2023-01-21T08:27:12.494Z,22.27
2023-01-21T08:29:40.039Z,18.47
2023-01-21T08:32:07.550Z,16.87
2023-01-21T08:34:35.109Z,24.90
2023-01-21T08:37:02.673Z,27.30
2023-01-21T08:39:30.211Z,19.27
2023-01-21T08:41:57.679Z,24.87
2023-01-21T08:44:25.379Z,20.37
2023-01-21T08:46:52.850Z,18.40
2023-01-21T08:49:20.423Z,18.50
2023-01-21T08:51:48.288Z,17.13
2023-01-21T08:54:17.860Z,26.67
2023-01-21T08:56:45.388Z,25.63
2023-01-21T08:59:12.864Z,19.13
2023-01-21T09:01:40.371Z,30.17
2023-01-21T09:04:08.090Z,19.60
2023-01-21T09:06:35.575Z,29.13
2023-01-21T09:09:03.134Z,30.27
2023-01-21T09:11:30.889Z,23.40
2023-01-21T09:13:58.438Z,24.13
2023-01-21T09:16:25.926Z,28.97
2023-01-21T09:18:53.414Z,26.43
2023-01-21T09:21:20.924Z,22.77
2023-01-21T09:23:48.724Z,29.13
2023-01-21T09:26:23.205Z,22.63
2023-01-21T09:28:54.911Z,29.80
2023-01-21T09:31:23.048Z,27.30
2023-01-21T09:33:53.193Z,29.10
2023-01-21T09:36:25.031Z,19.93
2023-01-21T09:38:52.716Z,26.57
2023-01-21T09:41:24.796Z,29.10
2023-01-21T09:43:56.861Z,24.87
2023-01-21T09:46:44.649Z,26.37
2023-01-21T09:49:15.625Z,22.90
2023-01-21T09:51:52.734Z,27.87
2023-01-21T09:54:28.669Z,24.53
2023-01-21T09:57:19.033Z,23.73
2023-01-21T10:00:01.813Z,22.60
2023-01-21T10:02:38.199Z,23.63
2023-01-21T10:05:11.719Z,19.43
2023-01-21T10:07:43.370Z,22.30
2023-01-21T10:10:21.455Z,25.70
2023-01-21T10:12:58.483Z,27.17
2023-01-21T10:15:25.950Z,20.90
2023-01-21T10:18:04.499Z,25.07
2023-01-21T10:20:40.965Z,24.33
2023-01-21T10:23:15.403Z,24.10
2023-01-21T10:25:42.882Z,21.73
2023-01-21T10:28:26.918Z,24.43
2023-01-21T10:31:02.243Z,24.00
2023-01-21T10:33:32.879Z,21.60
2023-01-21T10:36:03.484Z,25.53
2023-01-21T10:38:49.030Z,23.23
2023-01-21T10:41:25.449Z,23.73
2023-01-21T10:44:01.110Z,23.23
2023-01-21T10:46:34.393Z,23.37
2023-01-21T10:49:25.234Z,23.27
2023-01-21T10:52:06.078Z,23.73
2023-01-21T10:54:33.638Z,24.83
2023-01-21T10:57:24.488Z,24.87
2023-01-21T10:59:52.393Z,23.10
2023-01-21T11:02:26.940Z,24.77
2023-01-21T11:04:55.113Z,25.10
2023-01-21T11:07:22.758Z,23.70
2023-01-21T11:09:50.514Z,24.43
2023-01-21T11:12:19.307Z,19.80
2023-01-21T11:14:54.220Z,23.60
2023-01-21T11:17:32.916Z,17.67
2023-01-21T11:20:02.582Z,24.33
2023-01-21T11:22:31.329Z,16.53
2023-01-21T11:24:59.347Z,21.17
2023-01-21T11:27:34.485Z,24.17
2023-01-21T11:30:02.110Z,23.00
2023-01-21T11:32:30.630Z,19.17
2023-01-21T11:35:02.186Z,22.07
2023-01-21T11:37:30.678Z,23.00
2023-01-21T11:39:59.718Z,24.17
2023-01-21T11:42:27.798Z,25.63
2023-01-21T11:44:59.927Z,18.47
2023-01-21T11:47:36.256Z,22.57
2023-01-21T11:50:11.107Z,17.20
2023-01-21T11:52:38.745Z,22.87
2023-01-21T11:55:18.280Z,23.57
2023-01-21T11:57:49.823Z,20.60
2023-01-21T12:00:19.408Z,21.40
2023-01-21T12:02:49.831Z,22.50
2023-01-21T12:05:41.153Z,20.27
2023-01-21T12:08:14.846Z,20.47
2023-01-21T12:10:46.401Z,20.87
2023-01-21T12:13:19.694Z,20.43
2023-01-21T12:15:53.059Z,19.73
2023-01-21T12:18:26.806Z,18.00
2023-01-21T12:21:20.984Z,19.00
2023-01-21T12:24:07.264Z,13.20
2023-01-21T12:26:51.712Z,17.03
2023-01-21T12:29:32.476Z,18.67
2023-01-21T12:32:02.436Z,16.00
2023-01-21T12:34:34.217Z,18.27
2023-01-21T12:37:01.790Z,15.53
2023-01-21T12:39:30.059Z,15.73
2023-01-21T12:42:02.502Z,16.90
2023-01-21T12:44:33.228Z,16.13
2023-01-21T12:47:03.201Z,15.87
2023-01-21T12:49:46.163Z,17.90
2023-01-21T12:52:23.025Z,9.47
2023-01-21T12:54:59.259Z,17.67
2023-01-21T12:57:38.656Z,17.80
2023-01-21T13:00:13.846Z,14.60
2023-01-21T13:02:59.990Z,17.80
2023-01-21T13:05:35.841Z,16.27
2023-01-21T13:08:18.783Z,16.97
2023-01-21T13:10:48.693Z,17.93
2023-01-21T13:13:21.444Z,16.77
2023-01-21T13:15:51.394Z,17.83
2023-01-21T13:18:38.580Z,24.77
2023-01-21T13:21:23.848Z,17.50
2023-01-21T13:24:00.623Z,19.80
2023-01-21T13:26:28.117Z,11.60
2023-01-21T13:28:55.583Z,14.30
2023-01-21T13:31:32.941Z,14.00
2023-01-21T13:34:06.305Z,17.17
2023-01-21T13:36:52.740Z,19.30
2023-01-21T13:39:43.319Z,17.27
2023-01-21T13:42:21.244Z,16.27
2023-01-21T13:45:11.024Z,17.67
2023-01-21T13:47:57.377Z,16.77
2023-01-21T13:50:28.623Z,69.50
2023-01-21T13:52:59.301Z,40.70
2023-01-21T13:55:33.431Z,82.07
2023-01-21T13:58:02.647Z,75.07
2023-01-21T14:00:33.251Z,24.70
2023-01-21T14:03:06.965Z,44.90
2023-01-21T14:05:44.093Z,38.17
2023-01-21T14:08:20.103Z,40.37
2023-01-21T14:11:26.399Z,35.30
2023-01-21T14:14:00.080Z,32.10
2023-01-21T14:16:27.644Z,14.77
2023-01-21T14:19:03.948Z,21.87
2023-01-21T14:21:50.789Z,13.23
2023-01-21T14:24:24.544Z,18.90
2023-01-21T14:27:03.847Z,20.97
2023-01-21T14:29:44.058Z,22.57
2023-01-21T14:32:23.943Z,25.97
2023-01-21T14:35:00.342Z,26.80
2023-01-21T14:37:30.246Z,22.43
2023-01-21T14:40:00.630Z,17.67
2023-01-21T14:42:48.088Z,29.90
2023-01-21T14:45:17.716Z,17.90
2023-01-21T14:47:46.905Z,14.47
2023-01-21T14:50:33.136Z,22.57
2023-01-21T14:53:00.767Z,17.57
2023-01-21T14:55:29.367Z,27.67
2023-01-21T14:57:57.730Z,9.50
2023-01-21T15:00:35.778Z,14.93
2023-01-21T15:03:03.251Z,12.47
2023-01-21T15:05:34.177Z,8.23
2023-01-21T15:08:21.934Z,7.30
2023-01-21T15:11:06.834Z,7.47
2023-01-21T15:13:34.330Z,7.47
2023-01-21T15:16:16.733Z,8.93
2023-01-21T15:18:45.560Z,7.83
2023-01-21T15:21:31.968Z,9.30
2023-01-21T15:24:18.618Z,8.13
2023-01-21T15:27:04.935Z,8.13
2023-01-21T15:29:32.730Z,7.80
2023-01-21T15:32:18.973Z,7.00
2023-01-21T15:34:48.739Z,6.60
2023-01-21T15:37:23.426Z,8.10
2023-01-21T15:39:51.606Z,8.90
2023-01-21T15:42:22.124Z,7.50
2023-01-21T15:44:55.482Z,6.67
2023-01-21T15:47:35.063Z,12.10
2023-01-21T15:50:22.284Z,7.47
2023-01-21T15:52:57.115Z,10.37
2023-01-21T15:55:27.383Z,10.70
2023-01-21T15:58:06.844Z,12.00
2023-01-21T16:00:37.375Z,10.57
2023-01-21T16:03:23.786Z,9.93
2023-01-21T16:06:03.477Z,11.07
2023-01-21T16:08:39.132Z,9.60
2023-01-21T16:11:14.066Z,9.63
2023-01-21T16:13:54.209Z,8.47
2023-01-21T16:16:40.741Z,7.57
2023-01-21T16:19:13.306Z,12.97
2023-01-21T16:21:43.126Z,10.40
2023-01-21T16:24:15.937Z,11.10
2023-01-21T16:26:44.057Z,10.63
2023-01-21T16:29:12.395Z,7.23
2023-01-21T16:31:47.104Z,11.27
2023-01-21T16:34:14.745Z,8.07
2023-01-21T16:36:42.291Z,12.50
2023-01-21T16:39:10.510Z,12.03
2023-01-21T16:41:39.923Z,7.60
2023-01-21T16:44:15.986Z,9.40
2023-01-21T16:46:43.589Z,10.50
2023-01-21T16:49:15.417Z,13.40
2023-01-21T16:51:50.964Z,9.30
2023-01-21T16:54:18.519Z,11.17
2023-01-21T16:56:56.484Z,12.83
2023-01-21T16:59:40.615Z,9.57
2023-01-21T17:02:18.873Z,11.80
2023-01-21T17:04:46.653Z,9.03
2023-01-21T17:07:19.966Z,14.20
2023-01-21T17:09:54.154Z,10.03
2023-01-21T17:12:26.028Z,12.50
2023-01-21T17:14:56.102Z,13.10
2023-01-21T17:17:24.174Z,13.90
2023-01-21T17:19:51.719Z,12.87
2023-01-21T17:22:21.024Z,9.27
2023-01-21T17:24:57.489Z,7.13
2023-01-21T17:27:25.189Z,10.40
2023-01-21T17:29:52.921Z,7.00
2023-01-21T17:32:28.281Z,6.03
2023-01-21T17:35:11.295Z,8.27
2023-01-21T17:37:57.606Z,8.97
2023-01-21T17:40:46.484Z,7.33
2023-01-21T17:43:21.999Z,6.20
2023-01-21T17:45:50.478Z,8.17
2023-01-21T17:48:23.303Z,10.03
2023-01-21T17:50:50.998Z,5.73
2023-01-21T17:53:28.249Z,9.73
2023-01-21T17:55:58.446Z,9.43
2023-01-21T17:58:31.889Z,9.87
2023-01-21T18:01:03.559Z,10.03
2023-01-21T18:03:31.100Z,9.60
2023-01-21T18:05:58.633Z,10.53
2023-01-21T18:08:26.174Z,9.70
2023-01-21T18:10:53.698Z,10.93
2023-01-21T18:13:22.297Z,10.60
2023-01-21T18:15:49.862Z,10.50
2023-01-21T18:18:17.473Z,10.27
2023-01-21T18:20:46.253Z,10.83
2023-01-21T18:23:14.133Z,10.33
2023-01-21T18:25:42.003Z,11.10
2023-01-21T18:28:17.711Z,10.87
2023-01-21T18:30:45.492Z,11.77
2023-01-21T18:33:13.487Z,12.40
2023-01-21T18:35:43.641Z,10.43
2023-01-21T18:38:22.045Z,11.60
2023-01-21T18:40:49.540Z,10.13
2023-01-21T18:43:17.148Z,11.80
2023-01-21T18:45:44.751Z,11.83
2023-01-21T18:48:14.233Z,12.73
2023-01-21T18:50:41.820Z,12.23
2023-01-21T18:53:09.419Z,12.53
2023-01-21T18:55:37.005Z,12.90
2023-01-21T18:58:04.791Z,12.93
2023-01-21T19:00:33.519Z,12.20
2023-01-21T19:03:01.544Z,12.13
2023-01-21T19:05:34.977Z,13.53
2023-01-21T19:08:02.809Z,12.90
2023-01-21T19:10:30.336Z,12.73
2023-01-21T19:12:57.963Z,12.97
2023-01-21T19:15:27.609Z,10.63
2023-01-21T19:17:55.875Z,11.30
2023-01-21T19:20:24.649Z,13.67
2023-01-21T19:22:52.847Z,14.23
2023-01-21T19:25:21.666Z,10.23
2023-01-21T19:27:53.482Z,12.43
2023-01-21T19:30:21.106Z,13.50
2023-01-21T19:32:49.243Z,12.33
2023-01-21T19:35:18.011Z,14.30
2023-01-21T19:37:46.384Z,12.03
2023-01-21T19:40:18.442Z,14.10
2023-01-21T19:42:46.390Z,12.13
2023-01-21T19:45:14.869Z,13.17
2023-01-21T19:47:43.716Z,11.47
2023-01-21T19:50:18.776Z,13.40
2023-01-21T19:52:46.905Z,13.27
2023-01-21T19:55:18.649Z,15.20
2023-01-21T19:57:47.041Z,14.63
2023-01-21T20:00:20.444Z,15.80
2023-01-21T20:02:48.173Z,15.83
2023-01-21T20:05:15.746Z,15.90
2023-01-21T20:07:44.882Z,13.53
2023-01-21T20:10:17.083Z,15.47
2023-01-21T20:12:45.062Z,17.53
2023-01-21T20:15:17.028Z,18.30
2023-01-21T20:17:46.550Z,19.30
2023-01-21T20:20:15.218Z,18.67
2023-01-21T20:22:42.735Z,19.97
2023-01-21T20:25:14.080Z,18.10
2023-01-21T20:27:41.859Z,16.80
2023-01-21T20:30:38.854Z,19.37
2023-01-21T20:33:06.430Z,17.30
2023-01-21T20:35:33.945Z,18.53
2023-01-21T20:38:01.470Z,19.73
2023-01-21T20:40:30.078Z,20.40
2023-01-21T20:42:58.258Z,19.57
2023-01-21T20:45:30.506Z,18.87
2023-01-21T20:47:59.976Z,20.30
2023-01-21T20:50:32.251Z,19.53
2023-01-21T20:53:00.193Z,20.43
2023-01-21T20:55:28.633Z,21.23
2023-01-21T20:57:56.191Z,20.77
2023-01-21T21:00:25.270Z,19.10
2023-01-21T21:02:53.470Z,19.23
2023-01-21T21:05:21.043Z,18.30
2023-01-21T21:07:48.593Z,18.57
2023-01-21T21:10:19.362Z,19.60
2023-01-21T21:12:47.327Z,21.93
2023-01-21T21:15:15.332Z,17.03
2023-01-21T21:17:43.653Z,19.07
2023-01-21T21:20:30.507Z,20.47
2023-01-21T21:22:58.097Z,20.13
2023-01-21T21:25:30.111Z,21.50
2023-01-21T21:27:57.733Z,22.07
2023-01-21T21:30:29.406Z,16.87
2023-01-21T21:32:57.715Z,21.13
2023-01-21T21:35:27.019Z,20.30
2023-01-21T21:37:55.499Z,21.40
2023-01-21T21:40:24.056Z,19.43
2023-01-21T21:42:51.857Z,18.37
2023-01-21T21:45:19.685Z,16.90
2023-01-21T21:47:47.403Z,18.77
2023-01-21T21:50:15.081Z,18.83
2023-01-21T21:52:42.629Z,15.83
2023-01-21T21:55:10.360Z,14.03
2023-01-21T21:57:37.944Z,20.80
2023-01-21T22:00:05.670Z,16.13
2023-01-21T22:02:33.477Z,20.23
2023-01-21T22:05:01.066Z,20.60
2023-01-21T22:07:28.650Z,19.00
2023-01-21T22:09:56.160Z,20.83
2023-01-21T22:12:23.664Z,20.50
2023-01-21T22:14:51.138Z,20.30
2023-01-21T22:17:18.682Z,19.80
2023-01-21T22:19:46.206Z,21.27
2023-01-21T22:22:13.734Z,17.20
2023-01-21T22:24:41.240Z,21.73
2023-01-21T22:27:08.813Z,19.97
2023-01-21T22:29:36.439Z,15.87
2023-01-21T22:32:04.176Z,21.90
2023-01-21T22:34:33.761Z,17.87
2023-01-21T22:37:01.331Z,18.70
2023-01-21T22:39:28.800Z,18.37
2023-01-21T22:41:56.394Z,18.20
2023-01-21T22:44:23.855Z,16.87
2023-01-21T22:46:51.436Z,12.73
2023-01-21T22:49:19.050Z,18.20
2023-01-21T22:51:46.620Z,19.60
2023-01-21T22:54:14.150Z,12.63
2023-01-21T22:56:51.633Z,11.83
2023-01-21T22:59:20.481Z,21.27
2023-01-21T23:01:48.016Z,17.60
2023-01-21T23:04:15.605Z,14.30
2023-01-21T23:06:43.139Z,13.80
2023-01-21T23:09:13.271Z,15.70
2023-01-21T23:11:40.803Z,10.70
2023-01-21T23:14:09.574Z,14.17
2023-01-21T23:16:37.180Z,15.07
2023-01-21T23:19:04.715Z,16.73
2023-01-21T23:21:32.243Z,11.00
2023-01-21T23:23:59.725Z,19.37
2023-01-21T23:26:30.322Z,13.57
2023-01-21T23:28:58.576Z,19.27
2023-01-21T23:31:26.367Z,17.93
2023-01-21T23:33:55.045Z,17.57
2023-01-21T23:36:22.656Z,17.87
2023-01-21T23:38:50.167Z,12.40
2023-01-21T23:41:17.802Z,12.57
2023-01-21T23:43:45.382Z,16.77
2023-01-21T23:46:14.855Z,17.30
2023-01-21T23:48:42.875Z,16.50
2023-01-21T23:51:11.969Z,11.83
2023-01-21T23:53:39.592Z,14.20
2023-01-21T23:56:09.299Z,14.97
2023-01-21T23:58:36.956Z,17.63
